Victorious — CFN5313 — position and weather

sailwx.info

Track history (hours):
 
Tides and Currents Weather Stations Pressure Air Temp Water Temp Dewpoint Dewpoint Depression Visibility Wind Speed Wind Dir Waves Ship Positions

Victorious

Last reported at 2018-Apr-09 00:07 UTC. Time now 2018-Apr-19 15:17 UTC.
Position N 45°14' W 074°01'.
Warning: this ship's position is 10 days out of date.

Length 151 m; draft 5.8 m.

Type: Ship (hazmat cat B). MMSI: 316013946.

Date/timePositionNaut miles runAvg speedWind from/ knotsBaromVisibWave heightAir tempDewpointWater temp
2018-Apr-09 00:07N 45°14' W 074°01'1 6.9
2018-Apr-09 00:00N 45°14' W 074°00'4 7.2
2018-Apr-08 23:30N 45°17' W 073°57'2 3.9
2018-Apr-08 23:00N 45°18' W 073°56'1 1.4
2018-Apr-08 22:28N 45°19' W 073°55'0 0.6
2018-Apr-08 21:58N 45°19' W 073°55'2 4.2
2018-Apr-08 21:30N 45°21' W 073°53'4 7.6
2018-Apr-08 21:00N 45°23' W 073°49'4 7.1
2018-Apr-08 20:30N 45°24' W 073°44'3 6.2
2018-Apr-08 20:00N 45°25' W 073°40'3 5.4
2018-Apr-08 19:30N 45°24' W 073°36'1 2.7
2018-Apr-08 18:59N 45°24' W 073°34'2 3.1
2018-Apr-08 18:30N 45°25' W 073°32'3 5.8
2018-Apr-08 18:00N 45°27' W 073°30'3 4.5
2018-Apr-08 17:26N 45°30' W 073°31'1 1.3
2018-Apr-08 17:00N 45°30' W 073°31'1 0.0
2018-Apr-07 00:59N 45°31' W 073°32'2 3.8
2018-Apr-07 00:30N 45°30' W 073°31'1 1.2
2018-Apr-07 00:00N 45°29' W 073°31'3 5.9
2018-Apr-06 23:30N 45°26' W 073°30'3 5.4
2018-Apr-06 23:00N 45°24' W 073°33'1 1.3
2018-Apr-06 22:30N 45°24' W 073°34'2 3.0
2018-Apr-06 21:59N 45°24' W 073°36'3 5.3
2018-Apr-06 21:30N 45°25' W 073°40'3 6.2
2018-Apr-06 21:00N 45°24' W 073°44'4 8.9
2018-Apr-06 20:30N 45°22' W 073°50'5 9.1
2018-Apr-06 20:00N 45°19' W 073°55'1 1.0
2018-Apr-06 19:30N 45°19' W 073°55'1 1.3
2018-Apr-06 19:00N 45°18' W 073°56'1 2.8
2018-Apr-06 18:30N 45°17' W 073°57'3 5.6
2018-Apr-06 18:00N 45°15' W 073°59'7 9.5
2018-Apr-06 17:18N 45°14' W 074°08'  
Track history (hours):
 
Tides and Currents Weather Stations Pressure Air Temp Water Temp Dewpoint Dewpoint Depression Visibility Wind Speed Wind Dir Waves Ship Positions

Victorious

Last reported at 2018-Apr-09 00:07 UTC. Time now 2018-Apr-19 15:17 UTC.
Position N 45°14' W 074°01'.
Warning: this ship's position is 10 days out of date.

Length 151 m; draft 5.8 m.

Type: Ship (hazmat cat B). MMSI: 316013946.

Date/timePositionNaut miles runAvg speedWind from/ knotsBaromVisibWave heightAir tempDewpointWater temp
2018-Apr-09 00:07N 45°14' W 074°01'1 6.9
2018-Apr-09 00:00N 45°14' W 074°00'4 7.2
2018-Apr-08 23:30N 45°17' W 073°57'2 3.9
2018-Apr-08 23:00N 45°18' W 073°56'1 1.4
2018-Apr-08 22:28N 45°19' W 073°55'0 0.6
2018-Apr-08 21:58N 45°19' W 073°55'2 4.2
2018-Apr-08 21:30N 45°21' W 073°53'4 7.6
2018-Apr-08 21:00N 45°23' W 073°49'4 7.1
2018-Apr-08 20:30N 45°24' W 073°44'3 6.2
2018-Apr-08 20:00N 45°25' W 073°40'3 5.4
2018-Apr-08 19:30N 45°24' W 073°36'1 2.7
2018-Apr-08 18:59N 45°24' W 073°34'2 3.1
2018-Apr-08 18:30N 45°25' W 073°32'3 5.8
2018-Apr-08 18:00N 45°27' W 073°30'3 4.5
2018-Apr-08 17:26N 45°30' W 073°31'1 1.3
2018-Apr-08 17:00N 45°30' W 073°31'1 0.0
2018-Apr-07 00:59N 45°31' W 073°32'2 3.8
2018-Apr-07 00:30N 45°30' W 073°31'1 1.2
2018-Apr-07 00:00N 45°29' W 073°31'3 5.9
2018-Apr-06 23:30N 45°26' W 073°30'3 5.4
2018-Apr-06 23:00N 45°24' W 073°33'1 1.3
2018-Apr-06 22:30N 45°24' W 073°34'2 3.0
2018-Apr-06 21:59N 45°24' W 073°36'3 5.3
2018-Apr-06 21:30N 45°25' W 073°40'3 6.2
2018-Apr-06 21:00N 45°24' W 073°44'4 8.9
2018-Apr-06 20:30N 45°22' W 073°50'5 9.1
2018-Apr-06 20:00N 45°19' W 073°55'1 1.0
2018-Apr-06 19:30N 45°19' W 073°55'1 1.3
2018-Apr-06 19:00N 45°18' W 073°56'1 2.8
2018-Apr-06 18:30N 45°17' W 073°57'3 5.6
2018-Apr-06 18:00N 45°15' W 073°59'7 9.5
2018-Apr-06 17:18N 45°14' W 074°08'  

Dump ship's entire track history